Time,TemperatureF,DewpointF,PressureIn,WindDirection,WindDirectionDegrees,WindSpeedMPH,WindSpeedGustMPH,Humidity,HourlyPrecipIn,Conditions,Clouds,dailyrainin,SoftwareType,DateUTC
2013-06-05 00:01:00,55.2,28.8,0.00,SSE,149,0.0,0.0,36,0.00,,---,0.00,VWS V14.01,2013-06-05 04:01:00,
2013-06-05 00:02:00,55.4,28.9,0.00,SSE,149,0.0,0.0,36,0.00,,---,0.00,VWS V14.01,2013-06-05 04:02:00,
2013-06-05 00:03:00,55.4,28.9,0.00,SSE,149,0.0,0.0,36,0.00,,---,0.00,VWS V14.01,2013-06-05 04:03:00,
2013-06-05 00:05:00,55.2,28.8,0.00,SSE,149,0.0,0.0,36,0.00,,---,0.00,VWS V14.01,2013-06-05 04:05:00,
2013-06-05 00:06:00,55.2,28.8,0.00,SSE,149,0.0,0.0,36,0.00,,---,0.00,VWS V14.01,2013-06-05 04:06:00,
2013-06-05 00:11:00,55.0,28.6,0.00,SSE,149,0.0,0.0,36,0.00,,---,0.00,VWS V14.01,2013-06-05 04:11:00,
2013-06-05 00:17:00,55.0,28.6,0.00,SSE,149,0.0,0.0,36,0.00,,---,0.00,VWS V14.01,2013-06-05 04:17:00,
2013-06-05 00:23:00,54.5,28.1,0.00,SSE,149,0.0,0.0,36,0.00,,---,0.00,VWS V14.01,2013-06-05 04:23:00,
2013-06-05 00:29:00,54.5,28.1,0.00,SSE,149,0.0,0.0,36,0.00,,---,0.00,VWS V14.01,2013-06-05 04:29:00,
2013-06-05 00:34:00,54.5,28.1,0.00,SSE,149,0.0,0.0,36,0.00,,---,0.00,VWS V14.01,2013-06-05 04:34:00,
2013-06-05 00:40:00,54.3,28.0,0.00,SSE,149,0.0,0.0,36,0.00,,---,0.00,VWS V14.01,2013-06-05 04:40:00,
2013-06-05 00:46:00,54.1,27.8,0.00,SSE,149,0.0,0.0,36,0.00,,---,0.00,VWS V14.01,2013-06-05 04:46:00,
2013-06-05 00:51:00,54.1,27.8,0.00,SSE,149,0.0,0.0,36,0.00,,---,0.00,VWS V14.01,2013-06-05 04:51:00,
2013-06-05 00:56:00,54.0,27.6,0.00,SSE,149,0.0,0.0,36,0.00,,---,0.00,VWS V14.01,2013-06-05 04:56:00,
2013-06-05 01:01:00,53.8,27.5,0.00,SSE,149,0.0,0.0,36,0.00,,---,0.00,VWS V14.01,2013-06-05 05:01:00,
2013-06-05 01:06:00,53.8,28.1,0.00,SSE,149,0.0,0.0,37,0.00,,---,0.00,VWS V14.01,2013-06-05 05:06:00,
2013-06-05 01:12:00,53.8,28.1,0.00,SSE,149,0.0,0.0,37,0.00,,---,0.00,VWS V14.01,2013-06-05 05:12:00,
2013-06-05 01:18:00,53.6,28.0,0.00,SSE,149,0.0,0.0,37,0.00,,---,0.00,VWS V14.01,2013-06-05 05:18:00,
2013-06-05 01:23:00,53.6,28.0,0.00,SSE,149,0.0,0.0,37,0.00,,---,0.00,VWS V14.01,2013-06-05 05:23:00,
2013-06-05 01:29:00,53.4,27.8,0.00,SSE,149,0.0,0.0,37,0.00,,---,0.00,VWS V14.01,2013-06-05 05:29:00,
2013-06-05 01:35:00,53.4,27.8,0.00,SSE,149,0.0,0.0,37,0.00,,---,0.00,VWS V14.01,2013-06-05 05:35:00,
2013-06-05 01:40:00,53.2,27.7,0.00,SSE,149,0.0,0.0,37,0.00,,---,0.00,VWS V14.01,2013-06-05 05:40:00,
2013-06-05 01:47:00,53.2,28.3,0.00,SSE,149,0.0,0.0,38,0.00,,---,0.00,VWS V14.01,2013-06-05 05:47:00,
2013-06-05 01:53:00,53.1,28.1,0.00,SSE,149,0.0,0.0,38,0.00,,---,0.00,VWS V14.01,2013-06-05 05:53:00,
2013-06-05 01:59:00,53.1,28.1,0.00,SSE,149,0.0,0.0,38,0.00,,---,0.00,VWS V14.01,2013-06-05 05:59:00,
2013-06-05 02:05:00,53.1,28.1,0.00,SSE,149,0.0,0.0,38,0.00,,---,0.00,VWS V14.01,2013-06-05 06:05:00,
2013-06-05 02:10:00,53.1,28.1,0.00,SSE,149,0.0,0.0,38,0.00,,---,0.00,VWS V14.01,2013-06-05 06:10:00,
2013-06-05 02:15:00,53.1,28.1,0.00,SSE,149,0.0,0.0,38,0.00,,---,0.00,VWS V14.01,2013-06-05 06:15:00,
2013-06-05 02:20:00,53.1,28.1,0.00,SSE,149,0.0,0.0,38,0.00,,---,0.00,VWS V14.01,2013-06-05 06:20:00,
2013-06-05 02:25:00,52.9,28.0,0.00,SSE,149,0.0,0.0,38,0.00,,---,0.00,VWS V14.01,2013-06-05 06:25:00,
2013-06-05 02:31:00,52.7,27.8,0.00,SSE,149,0.0,0.0,38,0.00,,---,0.00,VWS V14.01,2013-06-05 06:31:00,
2013-06-05 02:36:00,52.5,27.7,0.00,SSE,149,0.0,0.0,38,0.00,,---,0.00,VWS V14.01,2013-06-05 06:36:00,
2013-06-05 02:42:00,52.3,27.5,0.00,SSE,149,0.0,0.0,38,0.00,,---,0.00,VWS V14.01,2013-06-05 06:42:00,
2013-06-05 02:47:00,52.2,27.3,0.00,SSE,149,0.0,0.0,38,0.00,,---,0.00,VWS V14.01,2013-06-05 06:47:00,
2013-06-05 02:53:00,52.2,28.0,0.00,SSE,149,0.0,0.0,39,0.00,,---,0.00,VWS V14.01,2013-06-05 06:53:00,
2013-06-05 02:58:00,52.0,27.2,0.00,SSE,149,0.0,0.0,38,0.00,,---,0.00,VWS V14.01,2013-06-05 06:58:00,
2013-06-05 03:03:00,52.0,27.2,0.00,SSE,149,0.0,0.0,38,0.00,,---,0.00,VWS V14.01,2013-06-05 07:03:00,
2013-06-05 03:08:00,52.0,27.2,0.00,SSE,149,0.0,0.0,38,0.00,,---,0.00,VWS V14.01,2013-06-05 07:08:00,
2013-06-05 03:13:00,52.0,27.2,0.00,SSE,149,0.0,0.0,38,0.00,,---,0.00,VWS V14.01,2013-06-05 07:13:00,
2013-06-05 03:18:00,52.0,27.8,0.00,SSE,149,0.0,0.0,39,0.00,,---,0.00,VWS V14.01,2013-06-05 07:18:00,
2013-06-05 03:24:00,52.0,27.8,0.00,SSE,149,0.0,0.0,39,0.00,,---,0.00,VWS V14.01,2013-06-05 07:24:00,
2013-06-05 03:29:00,52.0,27.8,0.00,SSE,149,0.0,0.0,39,0.00,,---,0.00,VWS V14.01,2013-06-05 07:29:00,
2013-06-05 03:34:00,51.8,27.6,0.00,SSE,149,0.0,0.0,39,0.00,,---,0.00,VWS V14.01,2013-06-05 07:34:00,
2013-06-05 03:39:00,51.8,27.6,0.00,SSE,149,0.0,0.0,39,0.00,,---,0.00,VWS V14.01,2013-06-05 07:39:00,
2013-06-05 03:46:00,51.6,27.5,0.00,SSE,149,0.0,0.0,39,0.00,,---,0.00,VWS V14.01,2013-06-05 07:46:00,
2013-06-05 03:51:00,51.6,27.5,0.00,SSE,149,0.0,0.0,39,0.00,,---,0.00,VWS V14.01,2013-06-05 07:51:00,
2013-06-05 03:56:00,51.4,27.3,0.00,SSE,149,0.0,0.0,39,0.00,,---,0.00,VWS V14.01,2013-06-05 07:56:00,
2013-06-05 04:02:00,51.3,27.2,0.00,SSE,149,0.0,0.0,39,0.00,,---,0.00,VWS V14.01,2013-06-05 08:02:00,
2013-06-05 04:08:00,51.3,27.2,0.00,SSE,149,0.0,0.0,39,0.00,,---,0.00,VWS V14.01,2013-06-05 08:08:00,
2013-06-05 04:13:00,51.3,27.2,0.00,SSE,149,0.0,0.0,39,0.00,,---,0.00,VWS V14.01,2013-06-05 08:13:00,
2013-06-05 04:18:00,51.1,27.0,0.00,SSE,149,0.0,0.0,39,0.00,,---,0.00,VWS V14.01,2013-06-05 08:18:00,
2013-06-05 04:24:00,50.9,26.8,0.00,SSE,149,0.0,0.0,39,0.00,,---,0.00,VWS V14.01,2013-06-05 08:24:00,
2013-06-05 04:29:00,50.7,26.7,0.00,SSE,149,0.0,0.0,39,0.00,,---,0.00,VWS V14.01,2013-06-05 08:29:00,
2013-06-05 04:35:00,50.7,26.7,0.00,SSE,149,0.0,0.0,39,0.00,,---,0.00,VWS V14.01,2013-06-05 08:35:00,
2013-06-05 04:40:00,50.9,27.5,0.00,SSE,149,0.0,0.0,40,0.00,,---,0.00,VWS V14.01,2013-06-05 08:40:00,
2013-06-05 04:45:00,50.9,27.5,0.00,SSE,149,0.0,0.0,40,0.00,,---,0.00,VWS V14.01,2013-06-05 08:45:00,
2013-06-05 04:50:00,50.7,26.7,0.00,SSE,149,0.0,0.0,39,0.00,,---,0.00,VWS V14.01,2013-06-05 08:50:00,
2013-06-05 04:56:00,50.5,27.1,0.00,SSE,149,0.0,0.0,40,0.00,,---,0.00,VWS V14.01,2013-06-05 08:56:00,
2013-06-05 05:02:00,50.5,27.1,0.00,SSE,149,0.0,0.0,40,0.00,,---,0.00,VWS V14.01,2013-06-05 09:02:00,
2013-06-05 05:07:00,50.5,27.1,0.00,SSE,149,0.0,0.0,40,0.00,,---,0.00,VWS V14.01,2013-06-05 09:07:00,
2013-06-05 05:12:00,50.5,27.1,0.00,SSE,149,0.0,0.0,40,0.00,,---,0.00,VWS V14.01,2013-06-05 09:12:00,
2013-06-05 05:17:00,50.5,27.1,0.00,SSE,149,0.0,0.0,40,0.00,,---,0.00,VWS V14.01,2013-06-05 09:17:00,
2013-06-05 05:23:00,50.4,27.0,0.00,SSE,149,0.0,0.0,40,0.00,,---,0.00,VWS V14.01,2013-06-05 09:23:00,
2013-06-05 05:28:00,50.4,27.0,0.00,SSE,149,0.0,0.0,40,0.00,,---,0.00,VWS V14.01,2013-06-05 09:28:00,
2013-06-05 05:34:00,50.2,26.8,0.00,SSE,149,0.0,0.0,40,0.00,,---,0.00,VWS V14.01,2013-06-05 09:34:00,
2013-06-05 05:39:00,50.2,26.8,0.00,SSE,149,0.0,0.0,40,0.00,,---,0.00,VWS V14.01,2013-06-05 09:39:00,
2013-06-05 05:45:00,50.4,27.6,0.00,SSE,149,0.0,0.0,41,0.00,,---,0.00,VWS V14.01,2013-06-05 09:45:00,
2013-06-05 05:50:00,50.4,27.6,0.00,SSE,149,0.0,0.0,41,0.00,,---,0.00,VWS V14.01,2013-06-05 09:50:00,
2013-06-05 05:55:00,50.5,27.7,0.00,SSE,149,0.0,0.0,41,0.00,,---,0.00,VWS V14.01,2013-06-05 09:55:00,
2013-06-05 06:01:00,50.5,28.3,0.00,SSE,149,0.0,0.0,42,0.00,,---,0.00,VWS V14.01,2013-06-05 10:01:00,
2013-06-05 06:06:00,50.7,28.5,0.00,SSE,149,0.0,0.0,42,0.00,,---,0.00,VWS V14.01,2013-06-05 10:06:00,
2013-06-05 06:12:00,50.9,28.6,0.00,SSE,149,0.0,0.0,42,0.00,,---,0.00,VWS V14.01,2013-06-05 10:12:00,
2013-06-05 06:17:00,51.1,29.4,0.00,SSE,149,0.0,0.0,43,0.00,,---,0.00,VWS V14.01,2013-06-05 10:17:00,
2013-06-05 06:23:00,51.3,29.5,0.00,SSE,149,0.0,0.0,43,0.00,,---,0.00,VWS V14.01,2013-06-05 10:23:00,
2013-06-05 06:28:00,51.4,29.7,0.00,SSE,149,0.0,0.0,43,0.00,,---,0.00,VWS V14.01,2013-06-05 10:28:00,
2013-06-05 06:34:00,51.6,30.4,0.00,SSE,149,0.0,0.0,44,0.00,,---,0.00,VWS V14.01,2013-06-05 10:34:00,
2013-06-05 06:39:00,51.8,30.6,0.00,SSE,149,0.0,0.0,44,0.00,,---,0.00,VWS V14.01,2013-06-05 10:39:00,
2013-06-05 06:44:00,52.2,30.9,0.00,SSE,149,0.0,0.0,44,0.00,,---,0.00,VWS V14.01,2013-06-05 10:44:00,
2013-06-05 06:49:00,52.5,31.2,0.00,SSE,149,0.0,0.0,44,0.00,,---,0.00,VWS V14.01,2013-06-05 10:49:00,
2013-06-05 06:54:00,53.1,32.3,0.00,SSE,149,0.0,0.0,45,0.00,,---,0.00,VWS V14.01,2013-06-05 10:54:00,
2013-06-05 06:59:00,53.8,33.5,0.00,SSE,149,0.0,0.0,46,0.00,,---,0.00,VWS V14.01,2013-06-05 10:59:00,
2013-06-05 07:05:00,54.9,34.5,0.00,SSE,149,0.0,0.0,46,0.00,,---,0.00,VWS V14.01,2013-06-05 11:05:00,
2013-06-05 07:11:00,55.6,34.6,0.00,SSE,149,0.0,0.0,45,0.00,,---,0.00,VWS V14.01,2013-06-05 11:11:00,
2013-06-05 07:16:00,56.1,35.1,0.00,SSE,149,0.0,0.0,45,0.00,,---,0.00,VWS V14.01,2013-06-05 11:16:00,
2013-06-05 07:22:00,56.8,35.2,0.00,SSE,149,0.0,0.0,44,0.00,,---,0.00,VWS V14.01,2013-06-05 11:22:00,
2013-06-05 07:28:00,57.4,33.9,0.00,SSE,149,0.0,0.0,41,0.00,,---,0.00,VWS V14.01,2013-06-05 11:28:00,
2013-06-05 07:33:00,57.9,34.4,0.00,SSE,149,0.0,0.0,41,0.00,,---,0.00,VWS V14.01,2013-06-05 11:33:00,
2013-06-05 07:39:00,58.6,34.4,0.00,SSE,149,0.0,0.0,40,0.00,,---,0.00,VWS V14.01,2013-06-05 11:39:00,
2013-06-05 07:44:00,59.0,33.5,0.00,SSE,149,0.0,0.0,38,0.00,,---,0.00,VWS V14.01,2013-06-05 11:44:00,
2013-06-05 07:50:00,59.5,33.3,0.00,SSE,149,0.0,0.0,37,0.00,,---,0.00,VWS V14.01,2013-06-05 11:50:00,
2013-06-05 07:55:00,60.3,33.9,0.00,SSE,149,0.0,0.0,37,0.00,,---,0.00,VWS V14.01,2013-06-05 11:55:00,
2013-06-05 08:01:00,60.8,33.7,0.00,SSE,149,0.0,0.0,36,0.00,,---,0.00,VWS V14.01,2013-06-05 12:01:00,
2013-06-05 08:07:00,61.5,33.6,0.00,SSE,149,0.0,0.0,35,0.00,,---,0.00,VWS V14.01,2013-06-05 12:07:00,
2013-06-05 08:13:00,62.2,34.3,0.00,SSE,149,0.0,0.0,35,0.00,,---,0.00,VWS V14.01,2013-06-05 12:13:00,
2013-06-05 08:18:00,62.8,34.8,0.00,SSE,149,0.0,0.0,35,0.00,,---,0.00,VWS V14.01,2013-06-05 12:18:00,
2013-06-05 08:24:00,63.0,34.2,0.00,NE,48,0.0,0.0,34,0.00,,---,0.00,VWS V14.01,2013-06-05 12:24:00,
2013-06-05 08:30:00,63.5,34.7,0.00,NE,48,0.0,0.0,34,0.00,,---,0.00,VWS V14.01,2013-06-05 12:30:00,
2013-06-05 08:36:00,64.2,35.3,0.00,NE,49,0.0,0.0,34,0.00,,---,0.00,VWS V14.01,2013-06-05 12:36:00,
2013-06-05 08:41:00,65.5,36.4,0.00,NE,49,0.0,0.0,34,0.00,,---,0.00,VWS V14.01,2013-06-05 12:41:00,
2013-06-05 08:47:00,65.8,36.7,0.00,NE,49,0.0,0.0,34,0.00,,---,0.00,VWS V14.01,2013-06-05 12:47:00,
2013-06-05 08:52:00,66.2,36.3,0.00,NE,49,0.0,0.0,33,0.00,,---,0.00,VWS V14.01,2013-06-05 12:52:00,
2013-06-05 08:57:00,66.7,36.8,0.00,NE,49,0.0,0.0,33,0.00,,---,0.00,VWS V14.01,2013-06-05 12:57:00,
2013-06-05 09:02:00,67.1,37.1,0.00,NE,49,0.0,0.0,33,0.00,,---,0.00,VWS V14.01,2013-06-05 13:02:00,
2013-06-05 09:08:00,67.3,37.2,0.00,NE,49,0.0,0.0,33,0.00,,---,0.00,VWS V14.01,2013-06-05 13:08:00,
2013-06-05 09:13:00,67.1,37.1,0.00,NE,49,0.0,0.0,33,0.00,,---,0.00,VWS V14.01,2013-06-05 13:13:00,
2013-06-05 09:19:00,67.6,37.5,0.00,NE,49,0.0,0.0,33,0.00,,---,0.00,VWS V14.01,2013-06-05 13:19:00,
2013-06-05 09:25:00,68.2,38.0,0.00,ESE,118,0.0,0.0,33,0.00,,---,0.00,VWS V14.01,2013-06-05 13:25:00,
2013-06-05 09:31:00,68.9,38.6,0.00,South,169,0.0,0.0,33,0.00,,---,0.00,VWS V14.01,2013-06-05 13:31:00,
2013-06-05 09:37:00,69.4,39.1,0.00,South,169,0.0,0.0,33,0.00,,---,0.00,VWS V14.01,2013-06-05 13:37:00,
2013-06-05 09:43:00,70.2,39.0,0.00,South,169,0.0,0.0,32,0.00,,---,0.00,VWS V14.01,2013-06-05 13:43:00,
2013-06-05 09:49:00,70.9,39.6,0.00,South,169,0.0,0.0,32,0.00,,---,0.00,VWS V14.01,2013-06-05 13:49:00,
2013-06-05 09:54:00,71.2,39.9,0.00,South,172,0.0,0.0,32,0.00,,---,0.00,VWS V14.01,2013-06-05 13:54:00,
2013-06-05 10:00:00,71.4,40.0,0.00,South,169,0.0,0.0,32,0.00,,---,0.00,VWS V14.01,2013-06-05 14:00:00,
2013-06-05 10:05:00,71.8,40.4,0.00,SW,227,0.0,3.1,32,0.00,,---,0.00,VWS V14.01,2013-06-05 14:05:00,
2013-06-05 10:10:00,72.5,41.0,0.00,SSW,194,0.0,0.0,32,0.00,,---,0.00,VWS V14.01,2013-06-05 14:10:00,
2013-06-05 10:15:00,73.0,41.5,0.00,South,184,0.0,2.2,32,0.00,,---,0.00,VWS V14.01,2013-06-05 14:15:00,
2013-06-05 10:20:00,73.2,41.6,0.00,SW,225,0.0,0.0,32,0.00,,---,0.00,VWS V14.01,2013-06-05 14:20:00,
2013-06-05 10:25:00,73.9,41.4,0.00,SSE,150,2.2,2.2,31,0.00,,---,0.00,VWS V14.01,2013-06-05 14:25:00,
2013-06-05 10:31:00,74.1,41.6,0.00,South,171,0.0,0.0,31,0.00,,---,0.00,VWS V14.01,2013-06-05 14:31:00,
2013-06-05 10:37:00,73.8,41.3,0.00,SSE,151,0.0,0.0,31,0.00,,---,0.00,VWS V14.01,2013-06-05 14:37:00,
2013-06-05 10:42:00,74.1,41.6,0.00,SSE,166,0.0,0.0,31,0.00,,---,0.00,VWS V14.01,2013-06-05 14:42:00,
2013-06-05 10:49:00,73.8,41.3,0.00,SSW,202,2.2,2.2,31,0.00,,---,0.00,VWS V14.01,2013-06-05 14:49:00,
2013-06-05 10:54:00,73.8,41.3,0.00,SSE,165,0.0,0.0,31,0.00,,---,0.00,VWS V14.01,2013-06-05 14:54:00,
2013-06-05 10:59:00,74.3,41.7,0.00,WSW,240,0.0,0.0,31,0.00,,---,0.00,VWS V14.01,2013-06-05 14:59:00,
2013-06-05 11:04:00,75.7,43.0,0.00,SSE,160,0.0,2.7,31,0.00,,---,0.00,VWS V14.01,2013-06-05 15:04:00,
2013-06-05 11:10:00,76.5,43.6,0.00,SSE,161,0.0,0.0,31,0.00,,---,0.00,VWS V14.01,2013-06-05 15:10:00,
2013-06-05 11:16:00,77.9,44.9,0.00,SSE,168,0.0,0.0,31,0.00,,---,0.00,VWS V14.01,2013-06-05 15:16:00,
2013-06-05 11:21:00,79.2,45.1,0.00,SSE,155,0.0,0.0,30,0.00,,---,0.00,VWS V14.01,2013-06-05 15:21:00,
2013-06-05 11:27:00,79.7,45.6,0.00,SSE,147,0.0,2.2,30,0.00,,---,0.00,VWS V14.01,2013-06-05 15:27:00,
2013-06-05 11:32:00,79.9,45.7,0.00,SSE,156,0.0,0.0,30,0.00,,---,0.00,VWS V14.01,2013-06-05 15:32:00,
2013-06-05 11:38:00,80.2,46.0,0.00,SSE,155,0.0,0.0,30,0.00,,---,0.00,VWS V14.01,2013-06-05 15:38:00,
2013-06-05 11:43:00,80.1,45.9,0.00,SSE,157,0.0,0.0,30,0.00,,---,0.00,VWS V14.01,2013-06-05 15:43:00,
2013-06-05 11:48:00,80.1,45.9,0.00,South,177,0.0,0.0,30,0.00,,---,0.00,VWS V14.01,2013-06-05 15:48:00,
2013-06-05 11:54:00,80.1,45.9,0.00,South,180,0.0,3.6,30,0.00,,---,0.00,VWS V14.01,2013-06-05 15:54:00,
2013-06-05 12:00:00,80.2,46.0,0.00,NNW,345,0.0,0.0,30,0.00,,---,0.00,VWS V14.01,2013-06-05 16:00:00,
2013-06-05 12:05:00,80.2,46.0,0.00,SW,221,0.0,0.0,30,0.00,,---,0.00,VWS V14.01,2013-06-05 16:05:00,
2013-06-05 12:10:00,81.0,46.6,0.00,SSW,206,2.7,3.6,30,0.00,,---,0.00,VWS V14.01,2013-06-05 16:10:00,
2013-06-05 12:15:00,80.8,46.5,0.00,South,188,0.0,0.0,30,0.00,,---,0.00,VWS V14.01,2013-06-05 16:15:00,
2013-06-05 12:20:00,81.3,47.0,0.00,South,169,2.2,3.1,30,0.00,,---,0.00,VWS V14.01,2013-06-05 16:20:00,
2013-06-05 12:26:00,81.1,46.8,0.00,South,170,0.0,0.0,30,0.00,,---,0.00,VWS V14.01,2013-06-05 16:26:00,
2013-06-05 12:31:00,80.8,46.5,0.00,SSE,152,0.0,0.0,30,0.00,,---,0.00,VWS V14.01,2013-06-05 16:31:00,
2013-06-05 12:37:00,80.8,46.5,0.00,SSE,152,0.0,0.0,30,0.00,,---,0.00,VWS V14.01,2013-06-05 16:37:00,
2013-06-05 12:43:00,80.6,46.3,0.00,SSE,157,0.0,2.7,30,0.00,,---,0.00,VWS V14.01,2013-06-05 16:43:00,
2013-06-05 12:49:00,80.1,45.9,0.00,SSE,155,0.0,0.0,30,0.00,,---,0.00,VWS V14.01,2013-06-05 16:49:00,
2013-06-05 12:54:00,80.4,46.2,0.00,SSE,166,0.0,0.0,30,0.00,,---,0.00,VWS V14.01,2013-06-05 16:54:00,
2013-06-05 12:59:00,80.4,46.2,0.00,South,171,0.0,0.0,30,0.00,,---,0.00,VWS V14.01,2013-06-05 16:59:00,
2013-06-05 13:04:00,79.9,45.7,0.00,South,171,0.0,0.0,30,0.00,,---,0.00,VWS V14.01,2013-06-05 17:04:00,
2013-06-05 13:10:00,79.9,45.7,0.00,SE,141,2.7,3.6,30,0.00,,---,0.00,VWS V14.01,2013-06-05 17:10:00,
2013-06-05 13:16:00,79.9,45.7,0.00,SSE,157,0.0,2.2,30,0.00,,---,0.00,VWS V14.01,2013-06-05 17:16:00,
2013-06-05 13:21:00,79.2,45.1,0.00,SSE,167,0.0,0.0,30,0.00,,---,0.00,VWS V14.01,2013-06-05 17:21:00,
2013-06-05 13:27:00,79.0,44.9,0.00,SSE,166,0.0,0.0,30,0.00,,---,0.00,VWS V14.01,2013-06-05 17:27:00,
2013-06-05 13:32:00,79.3,45.2,0.00,SSE,166,0.0,0.0,30,0.00,,---,0.00,VWS V14.01,2013-06-05 17:32:00,
2013-06-05 13:37:00,79.5,45.4,0.00,South,173,0.0,0.0,30,0.00,,---,0.00,VWS V14.01,2013-06-05 17:37:00,
2013-06-05 13:42:00,79.5,45.4,0.00,NNW,332,0.0,0.0,30,0.00,,---,0.00,VWS V14.01,2013-06-05 17:42:00,
2013-06-05 13:48:00,78.8,44.8,0.00,South,178,2.2,3.1,30,0.00,,---,0.00,VWS V14.01,2013-06-05 17:48:00,
2013-06-05 13:54:00,78.1,45.0,0.00,SSE,164,0.0,0.0,31,0.00,,---,0.00,VWS V14.01,2013-06-05 17:54:00,
2013-06-05 13:59:00,78.1,45.0,0.00,South,174,0.0,0.0,31,0.00,,---,0.00,VWS V14.01,2013-06-05 17:59:00,
2013-06-05 14:04:00,78.1,45.0,0.00,NE,52,2.7,3.1,31,0.00,,---,0.00,VWS V14.01,2013-06-05 18:04:00,
2013-06-05 14:09:00,77.9,44.9,0.00,South,177,2.7,3.6,31,0.00,,---,0.00,VWS V14.01,2013-06-05 18:09:00,
2013-06-05 14:14:00,77.4,44.4,0.00,SSE,150,2.7,2.7,31,0.00,,---,0.00,VWS V14.01,2013-06-05 18:14:00,
2013-06-05 14:20:00,77.4,44.4,0.00,South,181,0.0,0.0,31,0.00,,---,0.00,VWS V14.01,2013-06-05 18:20:00,
2013-06-05 14:26:00,77.7,44.7,0.00,SSW,193,2.7,3.1,31,0.00,,---,0.00,VWS V14.01,2013-06-05 18:26:00,
2013-06-05 14:32:00,77.9,44.9,0.00,SE,137,0.0,0.0,31,0.00,,---,0.00,VWS V14.01,2013-06-05 18:32:00,
2013-06-05 14:38:00,79.0,44.9,0.00,South,184,2.2,3.1,30,0.00,,---,0.00,VWS V14.01,2013-06-05 18:38:00,
2013-06-05 14:44:00,80.1,45.9,0.00,South,172,0.0,0.0,30,0.00,,---,0.00,VWS V14.01,2013-06-05 18:44:00,
2013-06-05 14:49:00,80.8,46.5,0.00,SSE,166,0.0,2.7,30,0.00,,---,0.00,VWS V14.01,2013-06-05 18:49:00,
2013-06-05 14:54:00,81.0,46.6,0.00,SE,140,2.7,2.7,30,0.00,,---,0.00,VWS V14.01,2013-06-05 18:54:00,
2013-06-05 15:00:00,80.4,46.2,0.00,SSE,150,0.0,0.0,30,0.00,,---,0.00,VWS V14.01,2013-06-05 19:00:00,
2013-06-05 15:05:00,79.7,45.6,0.00,WSW,239,0.0,2.7,30,0.00,,---,0.00,VWS V14.01,2013-06-05 19:05:00,
2013-06-05 15:11:00,79.2,45.1,0.00,SSE,165,0.0,0.0,30,0.00,,---,0.00,VWS V14.01,2013-06-05 19:11:00,
2013-06-05 15:17:00,78.6,45.5,0.00,SSE,149,0.0,0.0,31,0.00,,---,0.00,VWS V14.01,2013-06-05 19:17:00,
2013-06-05 15:22:00,78.4,45.3,0.00,SW,230,0.0,0.0,31,0.00,,---,0.00,VWS V14.01,2013-06-05 19:22:00,
2013-06-05 15:27:00,78.4,45.3,0.00,South,174,0.0,0.0,31,0.00,,---,0.00,VWS V14.01,2013-06-05 19:27:00,
2013-06-05 15:33:00,78.4,45.3,0.00,SE,125,0.0,0.0,31,0.00,,---,0.00,VWS V14.01,2013-06-05 19:33:00,
2013-06-05 15:38:00,78.4,45.3,0.00,SSW,213,2.7,3.1,31,0.00,,---,0.00,VWS V14.01,2013-06-05 19:38:00,
2013-06-05 15:44:00,78.3,45.2,0.00,South,187,0.0,0.0,31,0.00,,---,0.00,VWS V14.01,2013-06-05 19:44:00,
2013-06-05 15:50:00,78.3,45.2,0.00,South,176,0.0,0.0,31,0.00,,---,0.00,VWS V14.01,2013-06-05 19:50:00,
2013-06-05 15:55:00,78.6,45.5,0.00,ESE,121,0.0,0.0,31,0.00,,---,0.00,VWS V14.01,2013-06-05 19:55:00,
2013-06-05 16:01:00,79.0,44.9,0.00,SSE,161,0.0,0.0,30,0.00,,---,0.00,VWS V14.01,2013-06-05 20:01:00,
2013-06-05 16:07:00,79.5,45.4,0.00,SSE,161,0.0,0.0,30,0.00,,---,0.00,VWS V14.01,2013-06-05 20:07:00,
2013-06-05 16:12:00,80.1,45.9,0.00,SE,128,0.0,0.0,30,0.00,,---,0.00,VWS V14.01,2013-06-05 20:12:00,
2013-06-05 16:17:00,80.2,46.0,0.00,SSE,167,0.0,0.0,30,0.00,,---,0.00,VWS V14.01,2013-06-05 20:17:00,
2013-06-05 16:22:00,80.2,46.0,0.00,ESE,122,0.0,0.0,30,0.00,,---,0.00,VWS V14.01,2013-06-05 20:22:00,
2013-06-05 16:28:00,79.5,45.4,0.00,SW,230,0.0,0.0,30,0.00,,---,0.00,VWS V14.01,2013-06-05 20:28:00,
2013-06-05 16:34:00,79.0,44.9,0.00,South,173,0.0,0.0,30,0.00,,---,0.00,VWS V14.01,2013-06-05 20:34:00,
2013-06-05 16:39:00,78.4,45.3,0.00,WSW,249,0.0,2.7,31,0.00,,---,0.00,VWS V14.01,2013-06-05 20:39:00,
2013-06-05 16:44:00,78.4,45.3,0.00,SSE,162,0.0,0.0,31,0.00,,---,0.00,VWS V14.01,2013-06-05 20:44:00,
2013-06-05 16:49:00,78.1,45.0,0.00,SE,144,0.0,0.0,31,0.00,,---,0.00,VWS V14.01,2013-06-05 20:49:00,
2013-06-05 16:54:00,77.9,44.9,0.00,WSW,245,0.0,3.1,31,0.00,,---,0.00,VWS V14.01,2013-06-05 20:54:00,
2013-06-05 17:00:00,78.3,45.2,0.00,SSW,200,0.0,2.7,31,0.00,,---,0.00,VWS V14.01,2013-06-05 21:00:00,
2013-06-05 17:06:00,78.1,45.0,0.00,South,191,2.2,2.2,31,0.00,,---,0.00,VWS V14.01,2013-06-05 21:06:00,
2013-06-05 17:11:00,77.9,44.9,0.00,WNW,294,0.0,0.0,31,0.00,,---,0.00,VWS V14.01,2013-06-05 21:11:00,
2013-06-05 17:16:00,77.7,44.7,0.00,SE,128,0.0,0.0,31,0.00,,---,0.00,VWS V14.01,2013-06-05 21:16:00,
2013-06-05 17:21:00,77.9,44.9,0.00,SSE,149,0.0,0.0,31,0.00,,---,0.00,VWS V14.01,2013-06-05 21:21:00,
2013-06-05 17:28:00,78.3,45.2,0.00,SSE,148,0.0,0.0,31,0.00,,---,0.00,VWS V14.01,2013-06-05 21:28:00,
2013-06-05 17:33:00,78.3,45.2,0.00,SE,133,0.0,0.0,31,0.00,,---,0.00,VWS V14.01,2013-06-05 21:33:00,
2013-06-05 17:38:00,78.3,45.2,0.00,SSE,157,0.0,0.0,31,0.00,,---,0.00,VWS V14.01,2013-06-05 21:38:00,
2013-06-05 17:43:00,78.1,45.0,0.00,SW,217,0.0,0.0,31,0.00,,---,0.00,VWS V14.01,2013-06-05 21:43:00,
2013-06-05 17:49:00,77.9,44.9,0.00,SW,216,0.0,0.0,31,0.00,,---,0.00,VWS V14.01,2013-06-05 21:49:00,
2013-06-05 17:54:00,77.5,44.5,0.00,South,172,0.0,0.0,31,0.00,,---,0.00,VWS V14.01,2013-06-05 21:54:00,
2013-06-05 18:00:00,77.0,44.1,0.00,SSE,164,0.0,0.0,31,0.00,,---,0.00,VWS V14.01,2013-06-05 22:00:00,
2013-06-05 18:07:00,76.5,43.6,0.00,SSE,161,0.0,0.0,31,0.00,,---,0.00,VWS V14.01,2013-06-05 22:07:00,
2013-06-05 18:13:00,76.1,43.3,0.00,SSW,193,0.0,0.0,31,0.00,,---,0.00,VWS V14.01,2013-06-05 22:13:00,
2013-06-05 18:18:00,75.9,43.1,0.00,SSE,156,0.0,4.0,31,0.00,,---,0.00,VWS V14.01,2013-06-05 22:18:00,
2013-06-05 18:23:00,75.6,42.8,0.00,South,187,3.6,3.6,31,0.00,,---,0.00,VWS V14.01,2013-06-05 22:23:00,
2013-06-05 18:28:00,75.6,42.8,0.00,South,178,2.7,2.7,31,0.00,,---,0.00,VWS V14.01,2013-06-05 22:28:00,
2013-06-05 18:33:00,75.4,42.7,0.00,SSW,209,2.2,4.0,31,0.00,,---,0.00,VWS V14.01,2013-06-05 22:33:00,
2013-06-05 18:38:00,75.4,42.7,0.00,SSE,163,0.0,0.0,31,0.00,,---,0.00,VWS V14.01,2013-06-05 22:38:00,
2013-06-05 18:44:00,75.2,42.5,0.00,South,179,0.0,4.0,31,0.00,,---,0.00,VWS V14.01,2013-06-05 22:44:00,
2013-06-05 18:49:00,75.0,42.4,0.00,South,181,0.0,3.1,31,0.00,,---,0.00,VWS V14.01,2013-06-05 22:49:00,
2013-06-05 18:54:00,74.8,42.2,0.00,South,184,2.2,2.2,31,0.00,,---,0.00,VWS V14.01,2013-06-05 22:54:00,
2013-06-05 18:59:00,74.7,42.0,0.00,West,277,3.6,5.4,31,0.00,,---,0.00,VWS V14.01,2013-06-05 22:59:00,
2013-06-05 19:04:00,74.7,42.0,0.00,SSE,163,0.0,0.0,31,0.00,,---,0.00,VWS V14.01,2013-06-05 23:04:00,
2013-06-05 19:09:00,74.5,41.9,0.00,South,170,2.7,4.9,31,0.00,,---,0.00,VWS V14.01,2013-06-05 23:09:00,
2013-06-05 19:15:00,74.3,41.7,0.00,South,169,0.0,0.0,31,0.00,,---,0.00,VWS V14.01,2013-06-05 23:15:00,
2013-06-05 19:20:00,74.1,41.6,0.00,SSE,168,2.2,2.2,31,0.00,,---,0.00,VWS V14.01,2013-06-05 23:20:00,
2013-06-05 19:26:00,73.9,41.4,0.00,South,178,0.0,2.7,31,0.00,,---,0.00,VWS V14.01,2013-06-05 23:26:00,
2013-06-05 19:31:00,73.8,41.3,0.00,SSE,163,0.0,3.1,31,0.00,,---,0.00,VWS V14.01,2013-06-05 23:31:00,
2013-06-05 19:37:00,73.6,41.1,0.00,SSW,196,0.0,0.0,31,0.00,,---,0.00,VWS V14.01,2013-06-05 23:37:00,
2013-06-05 19:42:00,73.4,41.0,0.00,SSW,193,0.0,0.0,31,0.00,,---,0.00,VWS V14.01,2013-06-05 23:42:00,
2013-06-05 19:48:00,73.0,41.5,0.00,SSE,167,0.0,0.0,32,0.00,,---,0.00,VWS V14.01,2013-06-05 23:48:00,
2013-06-05 19:53:00,72.9,41.3,0.00,SSE,156,0.0,0.0,32,0.00,,---,0.00,VWS V14.01,2013-06-05 23:53:00,
2013-06-05 19:59:00,72.5,41.0,0.00,SE,138,0.0,0.0,32,0.00,,---,0.00,VWS V14.01,2013-06-05 23:59:00,
2013-06-05 20:04:00,72.3,40.8,0.00,SE,134,0.0,0.0,32,0.00,,---,0.00,VWS V14.01,2013-06-06 00:04:00,
2013-06-05 20:09:00,72.0,40.5,0.00,South,184,0.0,2.2,32,0.00,,---,0.00,VWS V14.01,2013-06-06 00:09:00,
2013-06-05 20:15:00,71.6,40.2,0.00,SW,222,0.0,0.0,32,0.00,,---,0.00,VWS V14.01,2013-06-06 00:15:00,
2013-06-05 20:20:00,71.4,40.0,0.00,SSW,201,0.0,0.0,32,0.00,,---,0.00,VWS V14.01,2013-06-06 00:20:00,
2013-06-05 20:27:00,70.7,39.4,0.00,SSW,201,0.0,0.0,32,0.00,,---,0.00,VWS V14.01,2013-06-06 00:27:00,
2013-06-05 20:32:00,70.2,39.0,0.00,SSW,201,0.0,0.0,32,0.00,,---,0.00,VWS V14.01,2013-06-06 00:32:00,
2013-06-05 20:37:00,70.0,38.8,0.00,SSW,201,0.0,0.0,32,0.00,,---,0.00,VWS V14.01,2013-06-06 00:37:00,
2013-06-05 20:43:00,69.8,38.6,0.00,SE,135,0.0,0.0,32,0.00,,---,0.00,VWS V14.01,2013-06-06 00:43:00,
2013-06-05 20:49:00,69.6,39.3,0.00,SE,135,0.0,0.0,33,0.00,,---,0.00,VWS V14.01,2013-06-06 00:49:00,
2013-06-05 20:54:00,69.3,39.0,0.00,SE,135,0.0,0.0,33,0.00,,---,0.00,VWS V14.01,2013-06-06 00:54:00,
2013-06-05 20:59:00,68.9,38.6,0.00,SE,135,0.0,0.0,33,0.00,,---,0.00,VWS V14.01,2013-06-06 00:59:00,
2013-06-05 21:05:00,68.7,38.5,0.00,SE,135,0.0,0.0,33,0.00,,---,0.00,VWS V14.01,2013-06-06 01:05:00,
2013-06-05 21:11:00,68.4,38.2,0.00,SE,135,0.0,0.0,33,0.00,,---,0.00,VWS V14.01,2013-06-06 01:11:00,
2013-06-05 21:16:00,68.5,38.3,0.00,SSE,150,0.0,0.0,33,0.00,,---,0.00,VWS V14.01,2013-06-06 01:16:00,
2013-06-05 21:21:00,68.5,38.3,0.00,SSE,150,0.0,0.0,33,0.00,,---,0.00,VWS V14.01,2013-06-06 01:21:00,
2013-06-05 21:26:00,68.4,38.2,0.00,SSE,150,0.0,0.0,33,0.00,,---,0.00,VWS V14.01,2013-06-06 01:26:00,
2013-06-05 21:32:00,68.2,38.0,0.00,SSE,150,0.0,0.0,33,0.00,,---,0.00,VWS V14.01,2013-06-06 01:32:00,
2013-06-05 21:37:00,68.2,38.0,0.00,SSE,159,0.0,0.0,33,0.00,,---,0.00,VWS V14.01,2013-06-06 01:37:00,
2013-06-05 21:44:00,68.0,37.8,0.00,SSE,159,0.0,0.0,33,0.00,,---,0.00,VWS V14.01,2013-06-06 01:44:00,
2013-06-05 21:49:00,68.0,37.8,0.00,SSE,159,0.0,0.0,33,0.00,,---,0.00,VWS V14.01,2013-06-06 01:49:00,
2013-06-05 21:54:00,68.0,37.8,0.00,SSE,166,0.0,0.0,33,0.00,,---,0.00,VWS V14.01,2013-06-06 01:54:00,
2013-06-05 22:00:00,68.0,37.8,0.00,SSE,166,0.0,0.0,33,0.00,,---,0.00,VWS V14.01,2013-06-06 02:00:00,
2013-06-05 22:05:00,68.0,37.8,0.00,SSE,166,0.0,0.0,33,0.00,,---,0.00,VWS V14.01,2013-06-06 02:05:00,
2013-06-05 22:10:00,67.8,37.7,0.00,SSE,166,0.0,0.0,33,0.00,,---,0.00,VWS V14.01,2013-06-06 02:10:00,
2013-06-05 22:15:00,67.6,37.5,0.00,SSE,166,0.0,0.0,33,0.00,,---,0.00,VWS V14.01,2013-06-06 02:15:00,
2013-06-05 22:21:00,67.5,37.4,0.00,SSE,166,0.0,0.0,33,0.00,,---,0.00,VWS V14.01,2013-06-06 02:21:00,
2013-06-05 22:27:00,67.6,37.5,0.00,SSE,166,0.0,0.0,33,0.00,,---,0.00,VWS V14.01,2013-06-06 02:27:00,
2013-06-05 22:32:00,67.6,37.5,0.00,SSE,156,2.2,2.2,33,0.00,,---,0.00,VWS V14.01,2013-06-06 02:32:00,
2013-06-05 22:37:00,67.6,37.5,0.00,SSE,156,0.0,0.0,33,0.00,,---,0.00,VWS V14.01,2013-06-06 02:37:00,
2013-06-05 22:42:00,67.6,37.5,0.00,SSE,157,0.0,0.0,33,0.00,,---,0.00,VWS V14.01,2013-06-06 02:42:00,
2013-06-05 22:48:00,67.5,37.4,0.00,South,170,0.0,0.0,33,0.00,,---,0.00,VWS V14.01,2013-06-06 02:48:00,
2013-06-05 22:53:00,67.6,37.5,0.00,SSE,148,0.0,0.0,33,0.00,,---,0.00,VWS V14.01,2013-06-06 02:53:00,
2013-06-05 22:58:00,67.8,37.7,0.00,SSE,152,0.0,0.0,33,0.00,,---,0.00,VWS V14.01,2013-06-06 02:58:00,
2013-06-05 23:03:00,67.8,37.7,0.00,SE,125,0.0,0.0,33,0.00,,---,0.00,VWS V14.01,2013-06-06 03:03:00,
2013-06-05 23:08:00,67.8,37.7,0.00,SE,138,0.0,2.2,33,0.00,,---,0.00,VWS V14.01,2013-06-06 03:08:00,
2013-06-05 23:13:00,67.8,37.7,0.00,SSW,211,0.0,2.2,33,0.00,,---,0.00,VWS V14.01,2013-06-06 03:13:00,
2013-06-05 23:19:00,67.8,37.7,0.00,South,170,0.0,0.0,33,0.00,,---,0.00,VWS V14.01,2013-06-06 03:19:00,
2013-06-05 23:24:00,67.8,37.7,0.00,SSE,152,0.0,0.0,33,0.00,,---,0.00,VWS V14.01,2013-06-06 03:24:00,
2013-06-05 23:29:00,67.8,37.7,0.00,SSE,150,0.0,0.0,33,0.00,,---,0.00,VWS V14.01,2013-06-06 03:29:00,
2013-06-05 23:35:00,67.8,37.7,0.00,SSE,152,0.0,2.7,33,0.00,,---,0.00,VWS V14.01,2013-06-06 03:35:00,
2013-06-05 23:40:00,67.6,37.5,0.00,NNW,334,0.0,0.0,33,0.00,,---,0.00,VWS V14.01,2013-06-06 03:40:00,
2013-06-05 23:46:00,67.5,37.4,0.00,SSE,157,0.0,0.0,33,0.00,,---,0.00,VWS V14.01,2013-06-06 03:46:00,
2013-06-05 23:51:00,67.5,37.4,0.00,SSE,167,3.1,3.1,33,0.00,,---,0.00,VWS V14.01,2013-06-06 03:51:00,
2013-06-05 23:56:00,67.5,37.4,0.00,SW,224,0.0,0.0,33,0.00,,---,0.00,VWS V14.01,2013-06-06 03:56:00,